Time;durP1;ratioP1;P1;durP2;ratioP2;P2;SDS_P1;SDS_P2;PMS_P1;PMS_P2;Temp;Humidity;BMP_temperature;BMP_pressure;BME280_temperature;BME280_humidity;BME280_pressure;Samples;Min_cycle;Max_cycle;Signal;HPM_P1;HPM_P2
2024/02/12 00:00:49;;;;;;;7.75;2.45;;;7.60;99.90;;;6.97;100.00;99805.34;4183603;28;20061;-74
2024/02/12 00:02:50;;;;;;;11.43;2.70;;;7.60;99.90;;;6.98;100.00;99808.78;4184663;28;20111;-74
2024/02/12 00:04:51;;;;;;;12.15;2.83;;;7.60;99.90;;;6.97;100.00;99807.13;4183175;28;20027;-74
2024/02/12 00:06:52;;;;;;;10.77;2.92;;;7.60;99.90;;;6.95;100.00;99801.25;4185833;28;20480;-74
2024/02/12 00:08:53;;;;;;;12.95;3.13;;;7.60;99.90;;;6.94;100.00;99796.97;4169840;28;20521;-75
2024/02/12 00:10:54;;;;;;;13.63;3.28;;;7.60;99.90;;;6.95;100.00;99799.44;4186139;28;20071;-74
2024/02/12 00:12:55;;;;;;;7.10;2.70;;;7.60;99.90;;;6.94;100.00;99799.59;4172128;28;20025;-74
2024/02/12 00:14:55;;;;;;;17.48;3.60;;;7.60;99.90;;;6.94;100.00;99805.66;4176276;28;20075;-74
2024/02/12 00:16:57;;;;;;;12.60;2.80;;;7.60;99.90;;;6.95;100.00;99814.34;4187566;28;20031;-74
2024/02/12 00:18:59;;;;;;;8.95;2.97;;;7.60;99.90;;;6.95;100.00;99812.56;4186076;28;20052;-74
2024/02/12 00:21:02;;;;;;;10.18;3.03;;;7.60;99.90;;;6.97;100.00;99810.59;4187409;28;20477;-75
2024/02/12 00:23:03;;;;;;;9.52;4.03;;;7.60;99.90;;;6.98;100.00;99814.03;4187407;28;20021;-74
2024/02/12 00:25:04;;;;;;;9.00;3.17;;;7.60;99.90;;;6.99;100.00;99807.81;4187541;28;20491;-74
2024/02/12 00:27:07;;;;;;;12.93;4.00;;;7.70;99.90;;;6.96;100.00;99802.91;4187373;28;20395;-74
2024/02/12 00:29:08;;;;;;;13.30;4.00;;;7.70;99.90;;;7.00;100.00;99798.97;4185963;28;20013;-74
2024/02/12 00:31:12;;;;;;;14.30;3.50;;;7.70;99.90;;;6.99;100.00;99799.97;4186239;28;20053;-74
2024/02/12 00:33:13;;;;;;;14.02;4.32;;;7.70;99.90;;;7.00;100.00;99802.41;4185877;28;20079;-75
2024/02/12 00:35:15;;;;;;;17.02;3.25;;;7.70;99.90;;;7.01;100.00;99800.63;4185899;28;20028;-74
2024/02/12 00:37:16;;;;;;;11.60;4.18;;;7.70;99.90;;;7.06;100.00;99809.66;4186581;28;20051;-74
2024/02/12 00:39:18;;;;;;;11.35;3.88;;;7.70;99.90;;;7.05;100.00;99812.41;4187261;28;20029;-75
2024/02/12 00:41:20;;;;;;;13.50;4.63;;;7.70;99.90;;;7.06;100.00;99814.06;4185951;28;20079;-74
2024/02/12 00:43:21;;;;;;;15.73;4.93;;;7.70;99.90;;;7.07;100.00;99806.06;4187038;28;20032;-74
2024/02/12 00:45:22;;;;;;;14.95;5.22;;;7.80;99.90;;;7.07;100.00;99806.06;4185563;28;20013;-75
2024/02/12 00:47:25;;;;;;;9.65;3.83;;;7.70;99.90;;;7.00;100.00;99791.94;4186097;28;20060;-75
2024/02/12 00:49:26;;;;;;;9.45;4.43;;;7.70;99.90;;;7.08;100.00;99806.88;4185644;28;20045;-75
2024/02/12 00:51:27;;;;;;;8.30;4.13;;;7.70;99.90;;;7.06;100.00;99800.97;4186957;28;20025;-75
2024/02/12 00:53:28;;;;;;;10.57;4.28;;;7.70;99.90;;;7.08;100.00;99806.88;4185625;28;20078;-75
2024/02/12 00:55:29;;;;;;;17.77;5.55;;;7.70;99.90;;;7.06;100.00;99800.97;4187056;28;20076;-74
2024/02/12 00:57:30;;;;;;;12.50;4.72;;;7.70;99.90;;;7.08;100.00;99796.38;4186684;28;20397;-74
2024/02/12 00:59:31;;;;;;;9.85;4.38;;;7.80;99.90;;;7.10;100.00;99800.50;4169048;28;20440;-74
2024/02/12 01:01:33;;;;;;;12.00;4.55;;;7.70;99.90;;;7.10;100.00;99799.69;4186740;28;20025;-74
2024/02/12 01:03:35;;;;;;;10.82;4.75;;;7.80;99.90;;;7.12;100.00;99792.47;4185556;28;20021;-74
2024/02/12 01:05:36;;;;;;;10.95;4.47;;;7.80;99.90;;;7.13;100.00;99789.72;4185580;28;20029;-75
2024/02/12 01:07:40;;;;;;;7.32;3.17;;;7.80;99.90;;;7.15;100.00;99787.75;4185697;28;20036;-75
2024/02/12 01:09:41;;;;;;;11.93;4.00;;;7.80;99.90;;;7.14;100.00;99785.25;4186575;28;20044;-75
2024/02/12 01:11:42;;;;;;;9.52;3.88;;;7.80;99.90;;;7.14;100.00;99788.72;4186740;28;20395;-74
2024/02/12 01:13:44;;;;;;;10.95;3.63;;;7.80;99.90;;;7.15;100.00;99787.75;4185395;28;20392;-75
2024/02/12 01:15:47;;;;;;;8.93;3.65;;;7.80;99.90;;;7.13;100.00;99791.50;4186515;28;20554;-75
2024/02/12 01:17:48;;;;;;;14.82;4.32;;;7.80;99.90;;;7.14;100.00;99780.84;4186403;28;20040;-75
2024/02/12 01:19:51;;;;;;;10.13;4.35;;;7.80;99.90;;;7.17;100.00;99787.56;4186210;28;20037;-74
2024/02/12 01:21:51;;;;;;;8.18;3.72;;;7.80;99.90;;;7.16;100.00;99781.53;4186570;28;20056;-75
2024/02/12 01:23:53;;;;;;;9.02;3.53;;;7.80;99.90;;;7.16;100.00;99786.78;4184978;28;20051;-74
2024/02/12 01:25:55;;;;;;;9.50;3.67;;;7.80;99.90;;;7.16;100.00;99780.69;4186296;28;20025;-75
2024/02/12 01:27:56;;;;;;;11.77;4.45;;;7.80;99.90;;;7.17;100.00;99790.19;4185140;28;20033;-75
2024/02/12 01:29:57;;;;;;;9.07;3.83;;;7.80;99.90;;;7.16;100.00;99784.16;4186461;28;20031;-75
2024/02/12 01:31:58;;;;;;;8.95;2.78;;;7.80;99.90;;;7.19;100.00;99783.00;4186354;28;20032;-75
2024/02/12 01:33:59;;;;;;;12.23;3.90;;;7.80;99.90;;;7.16;100.00;99781.53;4186384;28;20492;-75
2024/02/12 01:36:00;;;;;;;11.70;4.25;;;7.90;99.90;;;7.20;100.00;99785.47;4185006;28;20037;-75
2024/02/12 01:38:01;;;;;;;13.57;3.92;;;7.90;99.90;;;7.20;100.00;99782.00;4185186;28;20032;-75
2024/02/12 01:40:02;;;;;;;12.25;3.75;;;7.90;99.90;;;7.20;100.00;99784.63;4185058;28;20086;-75
2024/02/12 01:42:13;;;;;;;9.02;3.38;;;7.90;99.90;;;7.20;100.00;99782.00;4168112;28;20120;-75
2024/02/12 01:44:14;;;;;;;10.55;3.78;;;7.90;99.90;;;7.22;100.00;99787.94;4185187;28;20489;-75
2024/02/12 01:46:14;;;;;;;11.10;3.60;;;7.90;99.90;;;7.19;100.00;99783.84;4186135;28;20032;-75
2024/02/12 01:48:18;;;;;;;13.20;3.80;;;7.90;99.90;;;7.19;100.00;99783.00;4185896;28;20053;-75
2024/02/12 01:50:19;;;;;;;8.87;3.60;;;7.90;99.90;;;7.20;100.00;99787.25;4185976;28;20025;-75
2024/02/12 01:52:20;;;;;;;8.60;3.55;;;7.90;99.90;;;7.21;100.00;99791.53;4184741;28;20800;-75
2024/02/12 01:54:21;;;;;;;10.68;4.03;;;7.90;99.90;;;7.22;100.00;99787.94;4184968;28;20039;-75
2024/02/12 01:56:21;;;;;;;11.07;3.50;;;7.90;99.90;;;7.23;100.00;99782.50;4185809;28;20104;-75
2024/02/12 01:58:23;;;;;;;10.07;3.35;;;7.90;99.90;;;7.23;100.00;99790.38;4185680;28;20029;-75
2024/02/12 02:00:25;;;;;;;9.98;3.33;;;7.90;99.90;;;7.23;100.00;99792.19;4184775;28;20021;-75
2024/02/12 02:02:26;;;;;;;10.68;3.55;;;7.90;99.90;;;7.24;100.00;99788.59;4186167;28;20021;-75
2024/02/12 02:04:27;;;;;;;11.32;3.33;;;7.90;99.90;;;7.23;100.00;99781.69;4168021;28;20571;-75
2024/02/12 02:06:28;;;;;;;9.32;3.47;;;7.90;99.90;;;7.22;100.00;99780.06;4184600;28;20053;-74
2024/02/12 02:08:39;;;;;;;13.40;3.85;;;7.90;99.90;;;7.21;100.00;99786.28;4184871;28;20025;-75
2024/02/12 02:10:40;;;;;;;11.88;3.67;;;7.90;99.90;;;7.20;100.00;99784.63;4185756;28;20033;-75
2024/02/12 02:12:42;;;;;;;13.60;3.72;;;7.90;99.90;;;7.22;100.00;99790.56;4185494;28;20388;-75
2024/02/12 02:14:44;;;;;;;13.73;3.75;;;7.90;99.90;;;7.23;100.00;99784.31;4185838;28;20025;-75
2024/02/12 02:16:45;;;;;;;9.77;3.75;;;7.90;99.90;;;7.24;100.00;99791.22;4184731;28;20032;-75
2024/02/12 02:18:50;;;;;;;12.18;4.30;;;7.90;99.90;;;7.21;100.00;99781.03;4184348;28;20048;-75
2024/02/12 02:20:51;;;;;;;14.75;4.18;;;7.90;99.90;;;7.21;100.00;99781.88;4184406;28;20051;-75
2024/02/12 02:22:53;;;;;;;14.00;4.80;;;7.90;99.90;;;7.21;100.00;99784.50;4180155;28;20022;-75
2024/02/12 02:24:54;;;;;;;14.02;3.97;;;7.90;99.90;;;7.20;100.00;99784.63;4171804;28;20025;-75
2024/02/12 02:26:54;;;;;;;9.90;3.60;;;7.90;99.90;;;7.18;100.00;99778.72;4184199;28;20407;-75
2024/02/12 02:28:58;;;;;;;8.90;3.25;;;7.90;99.90;;;7.19;100.00;99781.22;4184271;28;20043;-75
2024/02/12 02:30:59;;;;;;;8.70;4.05;;;7.80;99.90;;;7.18;100.00;99776.94;4184789;28;20436;-75
2024/02/12 02:33:00;;;;;;;15.07;4.28;;;7.80;99.90;;;7.18;100.00;99782.19;4185540;28;20043;-75
2024/02/12 02:35:04;;;;;;;11.68;4.38;;;7.80;99.90;;;7.16;100.00;99783.31;4185389;28;20211;-75
2024/02/12 02:37:06;;;;;;;10.85;3.85;;;7.80;99.90;;;7.12;100.00;99771.50;4185270;28;20396;-75
2024/02/12 02:39:07;;;;;;;11.88;4.38;;;7.80;99.90;;;7.12;100.00;99774.94;4183959;28;20025;-75
2024/02/12 02:41:08;;;;;;;8.38;3.40;;;7.80;99.90;;;7.12;100.00;99774.94;4183743;28;20044;-75
2024/02/12 02:43:09;;;;;;;8.05;3.20;;;7.80;99.90;;;7.10;100.00;99766.41;4183942;28;20029;-74
2024/02/12 02:45:10;;;;;;;12.00;3.65;;;7.80;99.90;;;7.17;100.00;99772.66;4183982;28;20032;-75
2024/02/12 02:47:11;;;;;;;8.10;3.00;;;7.80;99.90;;;7.16;100.00;99767.59;4185335;28;20408;-75
2024/02/12 02:49:12;;;;;;;10.25;3.55;;;7.80;99.90;;;7.15;100.00;99771.19;4184069;28;20049;-75
2024/02/12 02:51:13;;;;;;;8.63;3.55;;;7.80;99.90;;;7.12;100.00;99772.31;4184047;28;20056;-75
2024/02/12 02:53:14;;;;;;;12.73;4.15;;;7.80;99.90;;;7.15;100.00;99774.63;4185063;28;20435;-75
2024/02/12 02:55:16;;;;;;;9.63;3.78;;;7.80;99.90;;;7.16;100.00;99770.22;4184092;28;20025;-75
2024/02/12 02:57:18;;;;;;;8.80;3.30;;;7.80;99.90;;;7.17;100.00;99774.44;4184873;28;20040;-75
2024/02/12 02:59:18;;;;;;;13.93;3.20;;;7.80;99.90;;;7.14;100.00;99753.78;4184227;28;20412;-75
2024/02/12 03:01:19;;;;;;;10.48;3.15;;;7.90;99.90;;;7.19;100.00;99768.09;4183948;28;20051;-75
2024/02/12 03:03:20;;;;;;;14.65;4.38;;;7.80;99.90;;;7.19;100.00;99757.59;4185208;28;20025;-75
2024/02/12 03:05:21;;;;;;;15.38;3.83;;;7.90;99.90;;;7.20;100.00;99758.41;4185278;28;20561;-75
2024/02/12 03:07:22;;;;;;;13.77;3.53;;;7.90;99.90;;;7.21;100.00;99762.69;4185148;28;20025;-75
2024/02/12 03:09:23;;;;;;;9.95;3.78;;;7.90;99.90;;;7.23;100.00;99765.94;4185013;28;20037;-75
2024/02/12 03:11:24;;;;;;;11.18;3.03;;;7.90;99.90;;;7.23;100.00;99756.28;4184997;28;20035;-75
2024/02/12 03:13:25;;;;;;;9.95;3.08;;;7.90;99.90;;;7.29;100.00;99757.44;4183758;28;20021;-75
2024/02/12 03:15:26;;;;;;;12.10;3.33;;;8.00;99.90;;;7.31;100.00;99768.63;4185031;28;20504;-75
2024/02/12 03:17:27;;;;;;;12.93;3.00;;;8.00;99.90;;;7.33;100.00;99760.59;4184943;28;20416;-75
2024/02/12 03:19:28;;;;;;;9.07;2.67;;;8.00;99.90;;;7.31;100.00;99766.00;4183714;28;20022;-75
2024/02/12 03:21:28;;;;;;;7.35;2.50;;;8.00;99.90;;;7.33;100.00;99761.41;4183914;28;20513;-75
2024/02/12 03:23:30;;;;;;;11.90;3.25;;;8.00;99.90;;;7.34;100.00;99765.69;4184910;28;20135;-75
2024/02/12 03:25:30;;;;;;;8.00;3.38;;;8.00;99.90;;;7.34;100.00;99763.06;4183737;28;20088;-75
2024/02/12 03:27:32;;;;;;;7.50;2.42;;;8.00;99.90;;;7.35;100.00;99772.56;4166850;28;20041;-75
2024/02/12 03:29:33;;;;;;;12.68;3.30;;;8.00;99.90;;;7.35;100.00;99775.19;4184982;28;20025;-75
2024/02/12 03:31:34;;;;;;;11.30;3.65;;;8.00;99.90;;;7.34;100.00;99773.56;4183700;28;20471;-75
2024/02/12 03:33:36;;;;;;;8.35;3.40;;;8.00;99.90;;;7.36;100.00;99773.38;4183700;28;20082;-75
2024/02/12 03:35:36;;;;;;;8.65;2.50;;;8.00;99.90;;;7.35;100.00;99769.94;4184660;28;20021;-75
2024/02/12 03:37:37;;;;;;;9.27;2.63;;;8.00;99.90;;;7.33;100.00;99766.66;4184841;28;20515;-75
2024/02/12 03:39:38;;;;;;;12.65;2.60;;;8.00;99.90;;;7.35;100.00;99767.31;4184886;28;20029;-75
2024/02/12 03:41:39;;;;;;;12.30;3.90;;;8.00;99.90;;;7.37;100.00;99770.63;4184430;28;20420;-74
2024/02/12 03:43:40;;;;;;;11.40;2.65;;;8.00;99.90;;;7.36;100.00;99768.97;4187759;28;20017;-75
2024/02/12 03:45:44;;;;;;;12.82;2.65;;;8.00;99.90;;;7.42;100.00;99773.56;4186723;28;20029;-75
2024/02/12 03:47:47;;;;;;;13.43;2.88;;;8.10;99.90;;;7.36;100.00;99768.97;4187889;28;20025;-75
2024/02/12 04:01:28;;;;;;;7.47;2.85;;;8.10;99.90;;;7.42;100.00;99773.56;4186706;28;20080;-75
2024/02/12 04:03:29;;;;;;;6.70;2.30;;;8.10;99.90;;;7.42;100.00;99778.81;4187888;28;20029;-75
2024/02/12 04:05:31;;;;;;;15.38;3.20;;;8.10;99.90;;;7.41;100.00;99777.16;4169883;28;20051;-75
2024/02/12 04:07:32;;;;;;;11.93;2.50;;;8.10;99.90;;;7.40;100.00;99775.53;4186490;28;20029;-75
2024/02/12 04:09:34;;;;;;;9.48;2.53;;;8.10;99.90;;;7.42;100.00;99785.88;4169739;28;20030;-75
2024/02/12 04:11:42;;;;;;;9.68;2.25;;;8.10;99.90;;;7.39;100.00;99780.94;4187942;28;20138;-75
2024/02/12 04:13:46;;;;;;;12.75;2.65;;;8.10;99.90;;;7.39;100.00;99786.19;4169640;28;20489;-74
2024/02/12 04:15:48;;;;;;;8.10;2.10;;;8.10;99.90;;;7.34;100.00;99784.06;4186298;28;20070;-75
2024/02/12 04:17:52;;;;;;;6.75;2.03;;;8.10;99.90;;;7.37;100.00;99790.78;4187240;28;20037;-75
2024/02/12 04:19:54;;;;;;;9.65;2.05;;;8.10;99.90;;;7.39;100.00;99791.44;4170054;28;20421;-75
2024/02/12 04:21:55;;;;;;;7.88;2.70;;;8.00;99.90;;;7.37;100.00;99794.22;4187392;28;20055;-75
2024/02/12 04:23:57;;;;;;;4.57;2.40;;;8.10;99.90;;;7.35;100.00;99793.53;4185704;28;20029;-75
2024/02/12 04:25:59;;;;;;;9.45;2.40;;;8.00;99.90;;;7.34;100.00;99798.97;4185977;28;20503;-74
2024/02/12 04:28:01;;;;;;;5.93;2.78;;;8.00;99.90;;;7.32;100.00;99799.09;4179646;28;20188;-75
2024/02/12 04:30:04;;;;;;;5.82;2.13;;;8.00;99.90;;;7.31;100.00;99796.66;4170954;28;20048;-75
2024/02/12 04:32:11;;;;;;;6.32;2.13;;;7.90;99.90;;;7.30;100.00;99801.06;4169600;28;20112;-75
2024/02/12 04:34:13;;;;;;;5.75;2.45;;;8.00;99.90;;;7.30;100.00;99800.25;4183155;28;20083;-75
2024/02/12 04:36:15;;;;;;;11.82;2.97;;;8.00;99.90;;;7.28;100.00;99805.66;4187348;28;20519;-75
2024/02/12 04:38:16;;;;;;;10.23;2.60;;;8.00;99.90;;;7.24;100.00;99799.09;4185950;28;20099;-74
2024/02/12 04:40:17;;;;;;;5.60;2.05;;;7.90;99.90;;;7.26;100.00;99804.97;4187355;28;20483;-75
2024/02/12 04:42:18;;;;;;;6.30;2.05;;;8.00;99.90;;;7.22;100.00;99803.69;4169399;28;20026;-75
2024/02/12 04:44:20;;;;;;;5.45;2.88;;;8.00;99.90;;;7.26;100.00;99819.94;4186030;28;20402;-75
2024/02/12 04:46:22;;;;;;;3.65;1.70;;;7.90;99.90;;;7.25;100.00;99819.09;4186829;28;20033;-74
2024/02/12 04:48:24;;;;;;;5.60;2.08;;;8.00;99.90;;;7.24;100.00;99817.44;4186801;28;20416;-75
2024/02/12 04:50:25;;;;;;;10.77;2.40;;;7.90;99.90;;;7.20;100.00;99813.47;4185531;28;20033;-75
2024/02/12 04:52:26;;;;;;;6.78;2.55;;;7.90;99.90;;;7.23;100.00;99827.09;4186078;28;20017;-75
2024/02/12 04:54:27;;;;;;;7.22;2.58;;;7.90;99.90;;;7.21;100.00;99829.06;4186044;28;20451;-75
2024/02/12 04:56:28;;;;;;;7.47;2.65;;;7.90;99.90;;;7.21;100.00;99830.88;4186869;28;20033;-75
2024/02/12 04:58:29;;;;;;;9.55;2.25;;;7.90;99.90;;;7.19;100.00;99831.03;4185428;28;20037;-75
2024/02/12 05:00:31;;;;;;;5.50;2.00;;;7.90;99.90;;;7.18;100.00;99824.16;4169044;28;20025;-75
2024/02/12 05:02:31;;;;;;;7.50;3.05;;;7.90;99.90;;;7.17;100.00;99827.72;4169098;28;20493;-75
2024/02/12 05:04:32;;;;;;;8.48;2.17;;;7.90;99.90;;;7.17;100.00;99843.47;4185587;28;20060;-74
2024/02/12 05:06:36;;;;;;;10.75;3.50;;;7.90;99.90;;;7.15;100.00;99837.56;4185435;28;20063;-75
2024/02/12 05:08:37;;;;;;;9.95;3.92;;;7.90;99.90;;;7.15;100.00;99834.94;4185648;28;20091;-75
2024/02/12 05:10:38;;;;;;;9.57;3.80;;;7.80;99.90;;;7.12;100.00;99831.81;4185509;28;20033;-75
2024/02/12 05:12:39;;;;;;;9.63;3.92;;;7.80;99.90;;;7.16;100.00;99843.63;4186507;28;20020;-75
2024/02/12 05:14:40;;;;;;;16.80;4.57;;;7.80;99.90;;;7.15;100.00;99855.09;4186737;28;20029;-75
2024/02/12 05:16:45;;;;;;;8.15;3.42;;;7.80;99.90;;;7.11;100.00;99841.47;4186570;28;20025;-75
2024/02/12 05:23:25;;;;;;;9.05;3.97;;;7.80;99.90;;;7.10;100.00;99852.13;4186429;28;20035;-74
2024/02/12 05:25:26;;;;;;;7.95;3.58;;;7.80;99.90;;;7.12;100.00;99852.78;4185241;28;20590;-75
2024/02/12 05:27:28;;;;;;;6.45;2.92;;;7.80;99.90;;;7.12;100.00;99847.53;4186172;28;20025;-75
2024/02/12 05:29:29;;;;;;;11.57;4.70;;;7.80;99.90;;;7.07;100.00;99848.03;4186517;28;20029;-75
2024/02/12 05:31:30;;;;;;;11.23;4.90;;;7.80;99.90;;;7.10;100.00;99858.19;4185270;28;20519;-75
2024/02/12 05:33:31;;;;;;;7.63;4.15;;;7.80;99.90;;;7.10;100.00;99860.81;4186391;28;20021;-75
2024/02/12 05:35:32;;;;;;;12.18;5.20;;;7.80;99.90;;;7.09;100.00;99853.09;4186298;28;20100;-75
2024/02/12 05:37:34;;;;;;;12.30;4.60;;;7.80;99.90;;;7.10;100.00;99860.00;4186297;28;20017;-75
2024/02/12 05:39:36;;;;;;;16.25;6.07;;;7.80;99.90;;;7.08;100.00;99868.00;4185306;28;20062;-75
2024/02/12 05:41:37;;;;;;;11.68;4.93;;;7.80;99.90;;;7.04;100.00;99864.06;4184956;28;20031;-75
2024/02/12 05:43:39;;;;;;;12.88;4.95;;;7.80;99.90;;;7.08;100.00;99869.78;4185907;28;20021;-75
2024/02/12 05:45:41;;;;;;;10.98;4.88;;;7.80;99.90;;;7.06;100.00;99863.91;4184898;28;20021;-75
2024/02/12 05:47:41;;;;;;;10.32;4.10;;;7.80;99.90;;;7.08;100.00;99869.78;4184892;28;20041;-75
2024/02/12 05:49:44;;;;;;;15.43;5.75;;;7.70;99.90;;;7.06;100.00;99869.97;4186063;28;20393;-75
2024/02/12 05:51:44;;;;;;;10.85;4.07;;;7.70;99.90;;;7.04;100.00;99868.47;4184697;28;20119;-75
2024/02/12 05:53:46;;;;;;;11.40;4.82;;;7.70;99.90;;;7.06;100.00;99871.75;4184700;28;20029;-75
2024/02/12 05:55:47;;;;;;;11.32;4.63;;;7.70;99.90;;;7.07;100.00;99878.66;4186080;28;20381;-75
2024/02/12 05:57:47;;;;;;;12.13;5.50;;;7.70;99.90;;;7.05;100.00;99880.59;4185719;28;20060;-75
2024/02/12 05:59:49;;;;;;;11.23;4.45;;;7.70;99.90;;;7.06;100.00;99888.31;4185774;28;20032;-75
2024/02/12 06:01:50;;;;;;;9.75;4.60;;;7.70;99.90;;;7.04;100.00;99871.09;4186161;28;20024;-75
2024/02/12 06:03:51;;;;;;;9.18;4.07;;;7.70;99.90;;;7.06;100.00;99887.50;4184849;28;20021;-75
2024/02/12 06:05:52;;;;;;;11.45;4.07;;;7.70;99.90;;;7.01;100.00;99877.47;4185641;28;20028;-75
2024/02/12 06:07:53;;;;;;;8.45;3.92;;;7.70;99.90;;;7.03;100.00;99877.31;4184504;28;20040;-75
2024/02/12 06:09:53;;;;;;;10.48;4.13;;;7.70;99.90;;;7.04;100.00;99881.59;4184695;28;20470;-75
2024/02/12 06:11:54;;;;;;;14.88;3.72;;;7.70;99.90;;;7.04;100.00;99878.97;4184545;28;20040;-75
2024/02/12 06:13:55;;;;;;;11.80;4.53;;;7.70;99.90;;;7.03;100.00;99883.38;4185775;28;20029;-75
2024/02/12 06:15:56;;;;;;;8.95;4.50;;;7.70;99.90;;;7.01;100.00;99887.16;4184587;28;20033;-75
2024/02/12 06:17:58;;;;;;;13.23;4.40;;;7.70;99.90;;;7.01;100.00;99887.16;4185447;28;20029;-75
2024/02/12 06:19:58;;;;;;;12.15;4.15;;;7.70;99.90;;;6.98;100.00;99890.91;4184640;28;20115;-75
2024/02/12 06:21:59;;;;;;;10.82;4.25;;;7.70;99.90;;;7.00;100.00;99891.56;4184310;28;20393;-75
2024/02/12 06:24:00;;;;;;;13.43;4.32;;;7.70;99.90;;;7.00;100.00;99894.19;4184406;28;20043;-75
2024/02/12 06:26:01;;;;;;;12.25;4.57;;;7.70;99.90;;;6.99;100.00;99897.78;4185480;28;20025;-75
2024/02/12 06:28:05;;;;;;;11.32;4.13;;;7.70;99.90;;;7.01;100.00;99900.25;4185423;28;20032;-75
2024/02/12 06:30:10;;;;;;;16.63;5.03;;;7.70;99.90;;;7.01;100.00;99897.63;4185612;28;20033;-75
2024/02/12 06:32:14;;;;;;;13.68;4.10;;;7.70;99.90;;;6.99;100.00;99903.00;4184210;28;20079;-75
2024/02/12 06:34:15;;;;;;;14.15;3.92;;;7.60;99.90;;;6.99;100.00;99904.84;4185736;28;20020;-75
2024/02/12 06:36:17;;;;;;;8.55;3.70;;;7.70;99.90;;;6.96;100.00;99899.91;4185373;28;20510;-75
2024/02/12 06:38:17;;;;;;;9.20;4.20;;;7.70;99.90;;;6.95;100.00;99895.63;4184116;28;20029;-75
2024/02/12 06:40:20;;;;;;;11.23;4.15;;;7.70;99.90;;;6.99;100.00;99905.63;4183979;28;20024;-75
2024/02/12 06:42:21;;;;;;;8.98;3.78;;;7.70;99.90;;;6.97;100.00;99906.78;4185256;28;20253;-75
2024/02/12 06:44:23;;;;;;;9.13;3.97;;;7.70;99.90;;;6.95;100.00;99911.34;4185355;28;20396;-75
2024/02/12 06:46:24;;;;;;;9.25;3.40;;;7.60;99.90;;;6.93;100.00;99908.88;4184939;28;20024;-75
2024/02/12 06:48:24;;;;;;;10.52;4.20;;;7.60;99.90;;;6.90;100.00;99903.13;4184906;28;20505;-74
2024/02/12 06:50:25;;;;;;;8.77;3.30;;;7.60;99.90;;;6.90;100.00;99903.94;4184104;28;20425;-75
2024/02/12 06:52:26;;;;;;;12.60;4.43;;;7.60;99.90;;;6.91;100.00;99920.50;4184249;28;20025;-75
2024/02/12 06:54:27;;;;;;;11.75;4.68;;;7.60;99.90;;;6.88;100.00;99923.41;4185416;28;20028;-75
2024/02/12 06:56:29;;;;;;;12.88;4.68;;;7.60;99.90;;;6.86;100.00;99923.59;4185119;28;20027;-75
2024/02/12 06:58:30;;;;;;;11.10;4.05;;;7.60;99.90;;;6.82;100.00;99926.63;4170700;28;20036;-75
2024/02/12 07:00:31;;;;;;;10.05;3.35;;;7.60;99.90;;;6.83;100.00;99929.13;4184132;28;20111;-75
2024/02/12 07:02:34;;;;;;;7.75;4.22;;;7.60;99.90;;;6.86;100.00;99938.47;4183928;28;20025;-75
2024/02/12 07:04:35;;;;;;;8.30;3.60;;;7.50;99.90;;;6.86;100.00;99944.56;4185282;28;20590;-75
2024/02/12 07:06:36;;;;;;;8.40;3.58;;;7.50;99.90;;;6.83;100.00;99944.03;4185049;28;20060;-75
2024/02/12 07:08:39;;;;;;;8.85;3.88;;;7.50;99.90;;;6.83;100.00;99952.72;4183979;28;20037;-75
2024/02/12 07:10:40;;;;;;;9.77;3.60;;;7.50;99.90;;;6.85;100.00;99955.16;4185108;28;20048;-75
2024/02/12 07:12:41;;;;;;;10.02;3.83;;;7.50;99.90;;;6.82;100.00;99953.69;4184795;28;20017;-75
2024/02/12 07:14:42;;;;;;;12.50;4.28;;;7.50;99.90;;;6.82;100.00;99955.47;4185193;28;20047;-75
2024/02/12 07:16:44;;;;;;;10.70;3.47;;;7.50;99.90;;;6.80;100.00;99960.06;4168172;28;20488;-75
2024/02/12 07:18:48;;;;;;;8.90;3.58;;;7.50;99.90;;;6.81;100.00;99962.50;4187154;28;20036;-75
2024/02/12 07:20:50;;;;;;;;;;;7.50;99.90;;;6.77;100.00;99976.09;4174066;28;20516;-74
2024/02/12 07:22:51;;;;;;;11.38;3.97;;;7.50;99.90;;;6.76;100.00;99977.03;4172117;28;19913;-75
2024/02/12 07:24:52;;;;;;;9.65;3.58;;;7.50;99.90;;;6.79;100.00;99989.84;4154348;28;20034;-74
2024/02/12 07:26:52;;;;;;;9.57;3.35;;;7.50;99.90;;;6.78;100.00;99990.84;4184690;28;20470;-75
2024/02/12 07:28:53;;;;;;;7.93;4.03;;;7.50;99.90;;;6.78;100.00;99988.22;4188137;28;20029;-74
2024/02/12 07:30:54;;;;;;;9.70;3.47;;;7.50;99.90;;;6.77;100.00;99997.06;4188399;28;20033;-74
2024/02/12 07:32:56;;;;;;;6.53;3.45;;;7.50;99.90;;;6.78;100.00;100003.94;4188461;28;20017;-75
2024/02/12 07:34:57;;;;;;;11.95;3.78;;;7.50;99.90;;;6.81;100.00;100016.75;4187213;28;20052;-75
2024/02/12 07:36:57;;;;;;;7.63;3.70;;;7.50;99.90;;;6.80;100.00;100018.56;4188085;28;20072;-74
2024/02/12 07:38:58;;;;;;;8.85;3.40;;;7.50;99.90;;;6.81;100.00;100029.88;4188092;28;20036;-75
2024/02/12 07:41:00;;;;;;;7.50;3.38;;;7.50;99.90;;;6.82;100.00;100031.50;4186941;28;20374;-74
2024/02/12 07:43:00;;;;;;;9.75;3.53;;;7.50;99.90;;;6.82;100.00;100041.97;4170056;28;20035;-75
2024/02/12 07:45:02;;;;;;;8.00;4.30;;;7.50;99.90;;;6.82;100.00;100034.94;4186780;28;20033;-74
2024/02/12 07:47:05;;;;;;;10.95;4.00;;;7.50;99.90;;;6.86;100.00;100040.72;4188118;28;20025;-75
2024/02/12 07:49:07;;;;;;;8.15;3.78;;;7.50;99.90;;;6.84;100.00;100040.06;4186770;28;20064;-75
2024/02/12 07:51:10;;;;;;;9.40;3.83;;;7.60;99.90;;;6.92;100.00;100051.44;4188023;28;20392;-75
2024/02/12 07:53:11;;;;;;;14.20;5.20;;;7.60;99.90;;;6.95;100.00;100050.31;4170200;28;20075;-74
2024/02/12 07:55:12;;;;;;;10.68;3.95;;;7.60;99.90;;;7.04;100.00;100054.66;4187848;28;20045;-75
2024/02/12 07:57:13;;;;;;;12.30;4.70;;;7.70;99.90;;;7.08;100.00;100061.22;4187883;28;20025;-75
2024/02/12 07:59:14;;;;;;;9.77;4.47;;;7.70;99.90;;;7.09;100.00;100062.88;4186505;28;20087;-74
2024/02/12 08:01:15;;;;;;;10.93;5.13;;;7.70;99.90;;;7.13;100.00;100066.88;4187808;28;20029;-75
2024/02/12 08:03:20;;;;;;;7.00;3.70;;;7.70;99.90;;;7.16;100.00;100069.19;4186634;28;20076;-75
2024/02/12 08:05:21;;;;;;;9.20;4.15;;;7.80;99.90;;;7.17;100.00;100071.66;4186485;28;20025;-74
2024/02/12 08:07:22;;;;;;;12.35;4.57;;;7.80;99.90;;;7.14;100.00;100074.56;4187813;28;20036;-74
2024/02/12 08:09:23;;;;;;;9.63;3.38;;;7.80;99.90;;;7.19;100.00;100082.84;4187624;28;20095;-74
2024/02/12 08:11:24;;;;;;;7.07;3.80;;;7.80;99.90;;;7.18;100.00;100081.19;4187574;28;20048;-75
2024/02/12 08:13:25;;;;;;;9.27;4.78;;;7.80;99.90;;;7.21;100.00;100088.75;4187500;28;20029;-75
2024/02/12 08:15:26;;;;;;;11.98;4.03;;;7.80;99.90;;;7.22;100.00;100089.56;4186297;28;20075;-77
2024/02/12 08:17:28;;;;;;;9.27;4.35;;;7.90;99.90;;;7.24;100.00;100096.31;4187403;28;20040;-80
2024/02/12 08:19:28;;;;;;;8.18;4.00;;;7.90;99.90;;;7.24;100.00;100095.47;4185366;28;20017;-80
2024/02/12 08:21:29;;;;;;;12.07;4.43;;;7.90;99.90;;;7.29;100.00;100101.09;4185069;28;20550;-80
2024/02/12 08:23:30;;;;;;;10.30;4.10;;;7.90;99.90;;;7.29;100.00;100103.72;4182019;28;20621;-80
2024/02/12 08:25:31;;;;;;;11.25;3.47;;;7.90;99.90;;;7.33;100.00;100106.88;4185915;28;20542;-80
2024/02/12 08:27:33;;;;;;;9.75;3.50;;;8.00;99.90;;;7.36;100.00;100109.19;4184638;28;20025;-80
2024/02/12 08:29:34;;;;;;;7.15;3.47;;;8.00;99.90;;;7.38;100.00;100110.69;4184517;28;20036;-80
2024/02/12 08:31:34;;;;;;;6.43;3.40;;;8.10;99.90;;;7.46;100.00;100117.81;4184800;28;20400;-79
2024/02/12 08:33:36;;;;;;;8.63;3.75;;;8.10;99.90;;;7.53;100.00;100124.91;4185853;28;20032;-80
2024/02/12 08:35:37;;;;;;;6.40;2.83;;;8.20;99.90;;;7.59;100.00;100128.72;4185070;28;20017;-80
2024/02/12 08:37:39;;;;;;;7.97;3.38;;;8.20;99.90;;;7.58;100.00;100124.47;4183028;28;20031;-77
2024/02/12 08:39:44;;;;;;;6.13;3.17;;;8.20;99.90;;;7.62;100.00;100131.88;4167869;28;20034;-73
2024/02/12 08:41:45;;;;;;;6.80;3.88;;;8.20;99.90;;;7.64;100.00;100137.81;4167344;28;20022;-72
2024/02/12 08:43:46;;;;;;;7.70;3.83;;;8.20;99.90;;;7.64;100.00;100140.44;4185681;28;20079;-72
2024/02/12 08:45:47;;;;;;;9.25;3.80;;;8.30;99.90;;;7.68;100.00;100146.19;4185495;28;20092;-72
2024/02/12 08:47:48;;;;;;;8.02;3.65;;;8.30;99.90;;;7.70;100.00;100154.75;4184951;28;20099;-75
2024/02/12 08:49:49;;;;;;;11.55;3.25;;;8.30;99.90;;;7.68;100.00;100152.28;4185504;28;20401;-75